createdAt,value
2019-02-09T00:02:09.540Z,100.00
2019-02-09T00:04:40.429Z,100.00
2019-02-09T00:07:11.575Z,100.00
2019-02-09T00:09:42.956Z,100.00
2019-02-09T00:12:13.634Z,100.00
2019-02-09T00:14:44.857Z,100.00
2019-02-09T00:17:15.659Z,100.00
2019-02-09T00:19:46.645Z,100.00
2019-02-09T00:22:17.870Z,100.00
2019-02-09T00:24:48.502Z,100.00
2019-02-09T00:27:19.493Z,100.00
2019-02-09T00:29:50.229Z,100.00
2019-02-09T00:32:20.692Z,100.00
2019-02-09T00:34:52.114Z,100.00
2019-02-09T00:37:22.627Z,100.00
2019-02-09T00:39:53.540Z,100.00
2019-02-09T00:42:24.712Z,100.00
2019-02-09T00:44:57.264Z,100.00
2019-02-09T00:47:29.675Z,100.00
2019-02-09T00:50:00.771Z,100.00
2019-02-09T00:52:34.391Z,100.00
2019-02-09T00:55:06.551Z,100.00
2019-02-09T00:57:37.480Z,100.00
2019-02-09T01:00:13.957Z,100.00
2019-02-09T01:02:46.808Z,100.00
2019-02-09T01:05:21.073Z,100.00
2019-02-09T01:07:52.754Z,100.00
2019-02-09T01:10:24.418Z,100.00
2019-02-09T01:12:54.790Z,100.00
2019-02-09T01:15:27.904Z,100.00
2019-02-09T01:17:58.848Z,100.00
2019-02-09T01:20:30.398Z,100.00
2019-02-09T01:23:01.182Z,100.00
2019-02-09T01:25:31.879Z,100.00
2019-02-09T01:28:02.832Z,100.00
2019-02-09T01:30:33.968Z,100.00
2019-02-09T01:33:05.048Z,100.00
2019-02-09T01:35:35.930Z,100.00
2019-02-09T01:38:06.925Z,100.00
2019-02-09T01:40:37.685Z,100.00
2019-02-09T01:43:08.973Z,100.00
2019-02-09T01:45:41.173Z,100.00
2019-02-09T01:48:12.994Z,100.00
2019-02-09T01:50:43.955Z,100.00
2019-02-09T01:53:16.060Z,100.00
2019-02-09T01:55:46.960Z,100.00
2019-02-09T01:58:19.942Z,100.00
2019-02-09T02:00:50.992Z,100.00
2019-02-09T02:03:22.124Z,100.00
2019-02-09T02:05:52.939Z,100.00
2019-02-09T02:08:24.059Z,100.00
2019-02-09T02:10:55.062Z,100.00
2019-02-09T02:13:26.286Z,100.00
2019-02-09T02:15:57.125Z,100.00
2019-02-09T02:18:28.178Z,100.00
2019-02-09T02:21:01.057Z,100.00
2019-02-09T02:23:32.924Z,100.00
2019-02-09T02:26:03.928Z,100.00
2019-02-09T02:28:34.783Z,100.00
2019-02-09T02:31:05.207Z,100.00
2019-02-09T02:33:36.221Z,100.00
2019-02-09T02:36:07.233Z,100.00
2019-02-09T02:38:37.744Z,100.00
2019-02-09T02:41:09.655Z,100.00
2019-02-09T02:43:40.582Z,100.00
2019-02-09T02:46:11.866Z,100.00
2019-02-09T02:48:42.762Z,100.00
2019-02-09T02:51:13.335Z,100.00
2019-02-09T02:53:44.299Z,100.00
2019-02-09T02:56:15.316Z,100.00
2019-02-09T02:58:46.690Z,100.00
2019-02-09T03:01:17.723Z,100.00
2019-02-09T03:03:48.482Z,100.00
2019-02-09T03:06:19.308Z,100.00
2019-02-09T03:08:50.242Z,100.00
2019-02-09T03:11:21.225Z,100.00
2019-02-09T03:13:52.138Z,100.00
2019-02-09T03:16:23.143Z,100.00
2019-02-09T03:18:54.160Z,100.00
2019-02-09T03:21:25.112Z,100.00
2019-02-09T03:23:55.550Z,100.00
2019-02-09T03:26:26.390Z,100.00
2019-02-09T03:28:57.354Z,100.00
2019-02-09T03:31:28.483Z,100.00
2019-02-09T03:33:59.461Z,100.00
2019-02-09T03:36:30.487Z,100.00
2019-02-09T03:39:01.425Z,100.00
2019-02-09T03:41:32.616Z,100.00
2019-02-09T03:44:03.470Z,100.00
2019-02-09T03:46:34.413Z,100.00
2019-02-09T03:49:05.792Z,100.00
2019-02-09T03:51:36.575Z,100.00
2019-02-09T03:54:07.470Z,100.00
2019-02-09T03:56:37.941Z,100.00
2019-02-09T03:59:08.600Z,100.00
2019-02-09T04:01:40.359Z,100.00
2019-02-09T04:04:11.226Z,100.00
2019-02-09T04:06:42.152Z,100.00
2019-02-09T04:09:12.549Z,100.00
2019-02-09T04:11:43.982Z,100.00
2019-02-09T04:14:14.695Z,100.00
2019-02-09T04:16:45.734Z,100.00
2019-02-09T04:19:16.690Z,100.00
2019-02-09T04:21:47.646Z,100.00
2019-02-09T04:24:18.454Z,100.00
2019-02-09T04:26:49.432Z,100.00
2019-02-09T04:29:20.287Z,100.00
2019-02-09T04:31:50.674Z,100.00
2019-02-09T04:34:21.791Z,100.00
2019-02-09T04:36:53.134Z,100.00
2019-02-09T04:39:23.731Z,100.00
2019-02-09T04:41:54.649Z,100.00
2019-02-09T04:44:25.985Z,100.00
2019-02-09T04:46:56.754Z,100.00
2019-02-09T04:49:27.732Z,100.00
2019-02-09T04:51:58.829Z,100.00
2019-02-09T04:54:29.814Z,100.00
2019-02-09T04:57:00.924Z,100.00
2019-02-09T04:59:33.002Z,100.00
2019-02-09T05:02:05.864Z,100.00
2019-02-09T05:04:36.809Z,100.00
2019-02-09T05:07:07.836Z,100.00
2019-02-09T05:09:38.222Z,100.00
2019-02-09T05:12:09.870Z,100.00
2019-02-09T05:14:40.993Z,100.00
2019-02-09T05:17:13.948Z,100.00
2019-02-09T05:19:44.793Z,100.00
2019-02-09T05:22:16.963Z,100.00
2019-02-09T05:24:49.859Z,100.00
2019-02-09T05:27:22.049Z,100.00
2019-02-09T05:29:53.942Z,100.00
2019-02-09T05:32:24.942Z,100.00
2019-02-09T05:34:56.001Z,100.00
2019-02-09T05:37:28.027Z,100.00
2019-02-09T05:40:00.909Z,100.00
2019-02-09T05:42:31.308Z,100.00
2019-02-09T05:45:03.085Z,100.00
2019-02-09T05:47:34.085Z,100.00
2019-02-09T05:50:05.898Z,100.00
2019-02-09T05:52:37.992Z,100.00
2019-02-09T05:55:10.167Z,100.00
2019-02-09T05:57:40.999Z,100.00
2019-02-09T06:00:32.138Z,100.00
2019-02-09T06:03:04.080Z,100.00
2019-02-09T06:05:35.293Z,100.00
2019-02-09T06:08:06.223Z,100.00
2019-02-09T06:10:37.889Z,100.00
2019-02-09T06:13:08.276Z,100.00
2019-02-09T06:15:38.668Z,100.00
2019-02-09T06:18:09.100Z,100.00
2019-02-09T06:20:41.279Z,100.00
2019-02-09T06:23:14.112Z,100.00
2019-02-09T06:25:47.218Z,100.00
2019-02-09T06:28:19.213Z,100.00
2019-02-09T06:30:50.257Z,100.00
2019-02-09T06:33:21.177Z,100.00
2019-02-09T06:35:53.400Z,100.00
2019-02-09T06:38:25.312Z,100.00
2019-02-09T06:40:57.287Z,100.00
2019-02-09T06:43:28.198Z,100.00
2019-02-09T06:45:59.316Z,100.00
2019-02-09T06:48:30.748Z,100.00
2019-02-09T06:51:02.264Z,100.00
2019-02-09T06:53:32.675Z,100.00
2019-02-09T06:56:03.334Z,100.00
2019-02-09T06:58:34.314Z,100.00
2019-02-09T07:01:05.569Z,100.00
2019-02-09T07:03:36.187Z,100.00
2019-02-09T07:06:07.316Z,100.00
2019-02-09T07:08:37.969Z,100.00
2019-02-09T07:11:08.484Z,100.00
2019-02-09T07:13:38.861Z,100.00
2019-02-09T07:16:11.257Z,99.76
2019-02-09T07:18:41.720Z,99.45
2019-02-09T07:21:13.343Z,99.11
2019-02-09T07:23:44.291Z,98.80
2019-02-09T07:26:15.311Z,98.48
2019-02-09T07:28:46.281Z,98.21
2019-02-09T07:31:18.750Z,97.80
2019-02-09T07:33:51.624Z,97.24
2019-02-09T07:36:24.642Z,96.65
2019-02-09T07:38:55.507Z,96.35
2019-02-09T07:41:26.486Z,96.15
2019-02-09T07:43:57.666Z,95.97
2019-02-09T07:46:28.578Z,95.74
2019-02-09T07:48:59.439Z,95.57
2019-02-09T07:51:30.652Z,95.38
2019-02-09T07:54:01.554Z,95.25
2019-02-09T07:56:32.524Z,95.05
2019-02-09T07:59:04.825Z,94.84
2019-02-09T08:01:37.725Z,94.54
2019-02-09T08:04:08.801Z,94.29
2019-02-09T08:06:41.544Z,94.19
2019-02-09T08:09:13.788Z,94.22
2019-02-09T08:11:44.564Z,94.17
2019-02-09T08:14:15.729Z,93.92
2019-02-09T08:16:47.608Z,93.77
2019-02-09T08:19:20.674Z,93.06
2019-02-09T08:21:51.792Z,92.08
2019-02-09T08:24:24.326Z,90.91
2019-02-09T08:26:56.654Z,88.68
2019-02-09T08:29:27.831Z,88.68
2019-02-09T08:31:58.753Z,87.19
2019-02-09T08:34:29.807Z,87.19
2019-02-09T08:37:00.758Z,86.67
2019-02-09T08:39:31.785Z,85.38
2019-02-09T08:42:03.718Z,84.89
2019-02-09T08:44:35.706Z,84.89
2019-02-09T08:47:07.950Z,84.17
2019-02-09T08:49:38.341Z,84.17
2019-02-09T08:52:09.760Z,83.86
2019-02-09T08:54:41.900Z,83.80
2019-02-09T08:57:14.902Z,82.47
2019-02-09T08:59:48.008Z,82.47
2019-02-09T09:02:20.830Z,81.86
2019-02-09T09:04:53.418Z,80.90
2019-02-09T09:07:24.002Z,79.91
2019-02-09T09:09:55.260Z,79.25
2019-02-09T09:12:25.965Z,78.87
2019-02-09T09:14:57.086Z,78.16
2019-02-09T09:17:28.205Z,77.66
2019-02-09T09:19:58.990Z,77.57
2019-02-09T09:22:30.035Z,77.79
2019-02-09T09:25:01.098Z,77.29
2019-02-09T09:27:32.150Z,77.46
2019-02-09T09:30:03.218Z,76.87
2019-02-09T09:32:34.072Z,76.19
2019-02-09T09:35:05.321Z,75.73
2019-02-09T09:37:36.053Z,75.21
2019-02-09T09:40:09.497Z,75.27
2019-02-09T09:42:41.938Z,75.13
2019-02-09T09:45:17.288Z,75.09
2019-02-09T09:47:48.115Z,75.36
2019-02-09T09:50:19.829Z,75.54
2019-02-09T09:52:52.114Z,75.34
2019-02-09T09:55:23.133Z,75.52
2019-02-09T09:57:53.494Z,75.09
2019-02-09T10:00:26.300Z,74.60
2019-02-09T10:02:57.847Z,73.84
2019-02-09T10:05:28.215Z,73.43
2019-02-09T10:07:59.237Z,73.67
2019-02-09T10:10:30.173Z,73.13
2019-02-09T10:13:01.297Z,72.34
2019-02-09T10:15:32.275Z,71.59
2019-02-09T10:18:03.288Z,71.22
2019-02-09T10:20:34.235Z,70.43
2019-02-09T10:23:05.279Z,70.48
2019-02-09T10:25:36.646Z,68.82
2019-02-09T10:28:07.347Z,66.96
2019-02-09T10:30:38.384Z,66.00
2019-02-09T10:33:09.408Z,66.53
2019-02-09T10:35:41.328Z,66.89
2019-02-09T10:38:13.760Z,65.51
2019-02-09T10:40:44.498Z,65.40
2019-02-09T10:43:15.434Z,64.20
2019-02-09T10:45:46.847Z,63.48
2019-02-09T10:48:17.419Z,63.00
2019-02-09T10:50:48.897Z,62.46
2019-02-09T10:53:19.322Z,62.15
2019-02-09T10:55:50.459Z,62.32
2019-02-09T10:58:21.387Z,62.19
2019-02-09T11:00:59.177Z,62.87
2019-02-09T11:03:29.536Z,63.71
2019-02-09T11:06:00.357Z,64.11
2019-02-09T11:08:31.551Z,64.78
2019-02-09T11:11:02.654Z,65.77
2019-02-09T11:13:33.374Z,65.94
2019-02-09T11:16:04.454Z,66.79
2019-02-09T11:18:36.393Z,66.98
2019-02-09T11:21:08.416Z,66.45
2019-02-09T11:23:38.869Z,66.40
2019-02-09T11:26:11.571Z,66.07
2019-02-09T11:28:44.522Z,65.85
2019-02-09T11:31:15.534Z,66.05
2019-02-09T11:33:47.451Z,65.92
2019-02-09T11:36:19.596Z,65.34
2019-02-09T11:38:50.969Z,64.45
2019-02-09T11:41:23.226Z,63.46
2019-02-09T11:43:54.044Z,62.83
2019-02-09T11:46:25.754Z,62.55
2019-02-09T11:48:56.150Z,62.39
2019-02-09T11:51:28.790Z,61.98
2019-02-09T11:54:00.748Z,61.99
2019-02-09T11:56:31.649Z,61.55
2019-02-09T11:59:02.583Z,61.54
2019-02-09T12:01:33.628Z,61.54
2019-02-09T12:04:05.025Z,62.62
2019-02-09T12:06:35.630Z,63.16
2019-02-09T12:09:09.472Z,64.26
2019-02-09T12:11:41.771Z,63.82
2019-02-09T12:14:17.288Z,63.68
2019-02-09T12:16:47.732Z,64.34
2019-02-09T12:19:19.829Z,64.12
2019-02-09T12:21:50.887Z,64.04
2019-02-09T12:24:21.832Z,63.88
2019-02-09T12:26:54.827Z,64.35
2019-02-09T12:29:26.447Z,63.94
2019-02-09T12:31:56.899Z,63.55
2019-02-09T12:34:27.916Z,63.02
2019-02-09T12:36:59.189Z,62.52
2019-02-09T12:39:30.225Z,61.37
2019-02-09T12:42:00.956Z,60.78
2019-02-09T12:44:31.983Z,60.08
2019-02-09T12:47:02.900Z,59.64
2019-02-09T12:49:35.519Z,60.00
2019-02-09T12:52:08.068Z,59.59
2019-02-09T12:54:38.522Z,60.50
2019-02-09T12:57:09.875Z,60.49
2019-02-09T12:59:42.411Z,61.14
2019-02-09T13:02:15.074Z,61.57
2019-02-09T13:04:47.934Z,62.57
2019-02-09T13:07:20.132Z,63.08
2019-02-09T13:09:50.622Z,63.69
2019-02-09T13:12:21.116Z,64.43
2019-02-09T13:14:53.796Z,65.67
2019-02-09T13:17:25.099Z,66.28
2019-02-09T13:19:57.115Z,67.39
2019-02-09T13:22:29.234Z,68.27
2019-02-09T13:25:00.101Z,68.60
2019-02-09T13:27:32.997Z,68.66
2019-02-09T13:30:07.447Z,68.62
2019-02-09T13:32:39.284Z,68.53
2019-02-09T13:35:12.344Z,68.30
2019-02-09T13:37:45.027Z,67.55
2019-02-09T13:40:17.575Z,67.02
2019-02-09T13:42:48.089Z,66.19
2019-02-09T13:45:23.449Z,65.34
2019-02-09T13:47:54.101Z,65.03
2019-02-09T13:50:26.847Z,64.28
2019-02-09T13:52:57.230Z,63.12
2019-02-09T13:55:28.277Z,61.64
2019-02-09T13:57:59.205Z,60.99
2019-02-09T14:00:30.380Z,61.25
2019-02-09T14:03:01.331Z,61.15
2019-02-09T14:05:32.481Z,60.34
2019-02-09T14:08:03.350Z,60.35
2019-02-09T14:10:34.234Z,61.22
2019-02-09T14:13:05.377Z,62.15
2019-02-09T14:15:36.363Z,62.75
2019-02-09T14:18:09.106Z,62.71
2019-02-09T14:20:39.550Z,62.87
2019-02-09T14:23:12.372Z,63.05
2019-02-09T14:25:43.369Z,63.31
2019-02-09T14:28:14.271Z,64.13
2019-02-09T14:30:45.458Z,64.66
2019-02-09T14:33:16.343Z,64.87
2019-02-09T14:35:47.421Z,64.92
2019-02-09T14:38:18.521Z,65.50
2019-02-09T14:40:49.458Z,65.72
2019-02-09T14:43:20.356Z,66.37
2019-02-09T14:45:51.490Z,65.40
2019-02-09T14:48:22.405Z,62.31
2019-02-09T14:50:53.379Z,59.63
2019-02-09T14:53:24.430Z,60.05
2019-02-09T14:55:55.551Z,62.21
2019-02-09T14:58:28.518Z,63.81
2019-02-09T15:00:59.518Z,64.50
2019-02-09T15:03:30.949Z,65.20
2019-02-09T15:06:03.427Z,65.92
2019-02-09T15:08:35.458Z,66.73
2019-02-09T15:11:06.491Z,67.97
2019-02-09T15:13:37.592Z,69.18
2019-02-09T15:16:38.806Z,69.79
2019-02-09T15:19:09.569Z,70.47
2019-02-09T15:21:41.578Z,71.60
2019-02-09T15:24:14.326Z,71.76
2019-02-09T15:26:45.524Z,72.06
2019-02-09T15:29:16.623Z,72.74
2019-02-09T15:31:48.542Z,73.45
2019-02-09T15:34:21.625Z,73.75
2019-02-09T15:36:52.554Z,73.80
2019-02-09T15:39:23.690Z,74.41
2019-02-09T15:41:54.955Z,75.23
2019-02-09T15:44:25.796Z,75.78
2019-02-09T15:46:56.748Z,76.21
2019-02-09T15:49:27.966Z,76.43
2019-02-09T15:51:58.745Z,76.67
2019-02-09T15:54:29.615Z,76.99
2019-02-09T15:57:00.667Z,77.24
2019-02-09T15:59:31.553Z,77.55
2019-02-09T16:02:04.276Z,77.83
2019-02-09T16:04:36.790Z,78.34
2019-02-09T16:07:07.770Z,78.72
2019-02-09T16:09:38.706Z,78.93
2019-02-09T16:12:09.700Z,78.87
2019-02-09T16:14:41.790Z,79.15
2019-02-09T16:17:15.056Z,79.57
2019-02-09T16:19:46.233Z,80.16
2019-02-09T16:22:18.831Z,80.84
2019-02-09T16:24:56.083Z,81.03
2019-02-09T16:27:26.928Z,81.37
2019-02-09T16:29:57.892Z,81.59
2019-02-09T16:32:28.783Z,81.95
2019-02-09T16:35:01.447Z,82.51
2019-02-09T16:37:33.889Z,82.72
2019-02-09T16:40:06.533Z,82.97
2019-02-09T16:42:38.863Z,83.33
2019-02-09T16:45:13.617Z,83.74
2019-02-09T16:47:44.938Z,84.08
2019-02-09T16:50:18.713Z,84.44
2019-02-09T16:52:51.166Z,84.66
2019-02-09T16:55:23.022Z,84.44
2019-02-09T16:57:54.004Z,84.22
2019-02-09T17:00:35.907Z,84.19
2019-02-09T17:03:09.140Z,84.53
2019-02-09T17:05:39.667Z,84.46
2019-02-09T17:08:12.994Z,84.12
2019-02-09T17:10:43.951Z,82.96
2019-02-09T17:13:14.872Z,82.12
2019-02-09T17:15:45.883Z,81.72
2019-02-09T17:18:16.717Z,82.10
2019-02-09T17:20:47.740Z,81.80
2019-02-09T17:23:18.216Z,81.68
2019-02-09T17:25:49.702Z,82.16
2019-02-09T17:28:20.814Z,82.33
2019-02-09T17:30:51.955Z,82.63
2019-02-09T17:33:22.946Z,83.16
2019-02-09T17:35:53.917Z,83.54
2019-02-09T17:38:24.951Z,83.17
2019-02-09T17:40:55.968Z,83.38
2019-02-09T17:43:26.975Z,83.44
2019-02-09T17:46:05.209Z,83.28
2019-02-09T17:48:38.249Z,83.27
2019-02-09T17:51:11.159Z,83.46
2019-02-09T17:53:42.292Z,83.66
2019-02-09T17:56:14.287Z,83.76
2019-02-09T17:58:46.290Z,83.93
2019-02-09T18:01:18.230Z,84.06
2019-02-09T18:03:49.886Z,83.76
2019-02-09T18:06:21.230Z,83.82
2019-02-09T18:08:51.892Z,83.90
2019-02-09T18:11:22.360Z,83.99
2019-02-09T18:13:54.078Z,84.14
2019-02-09T18:16:25.656Z,83.94
2019-02-09T18:18:58.365Z,83.91
2019-02-09T18:21:29.405Z,83.71
2019-02-09T18:24:00.300Z,83.66
2019-02-09T18:26:30.877Z,83.83
2019-02-09T18:29:02.393Z,84.09
2019-02-09T18:31:33.438Z,84.47
2019-02-09T18:34:04.474Z,84.83
2019-02-09T18:36:35.532Z,85.11
2019-02-09T18:39:11.592Z,85.32
2019-02-09T18:41:42.525Z,85.48
2019-02-09T18:44:14.535Z,85.74
2019-02-09T18:46:45.393Z,85.85
2019-02-09T18:49:17.669Z,85.98
2019-02-09T18:51:48.514Z,86.24
2019-02-09T18:54:21.924Z,86.46
2019-02-09T18:56:52.939Z,86.58
2019-02-09T18:59:23.490Z,86.72
2019-02-09T19:01:54.406Z,86.86
2019-02-09T19:04:25.576Z,87.04
2019-02-09T19:06:58.457Z,86.22
2019-02-09T19:09:30.651Z,85.77
2019-02-09T19:12:01.652Z,85.34
2019-02-09T19:14:32.678Z,85.38
2019-02-09T19:17:03.721Z,85.44
2019-02-09T19:19:34.575Z,85.37
2019-02-09T19:22:05.664Z,85.44
2019-02-09T19:24:36.590Z,85.71
2019-02-09T19:27:07.920Z,85.27
2019-02-09T19:29:38.471Z,85.15
2019-02-09T19:32:09.474Z,85.47
2019-02-09T19:34:39.963Z,85.97
2019-02-09T19:37:13.209Z,86.28
2019-02-09T19:39:45.715Z,86.54
2019-02-09T19:42:16.691Z,86.78
2019-02-09T19:44:47.722Z,86.87
2019-02-09T19:47:18.925Z,87.09
2019-02-09T19:49:51.797Z,87.20
2019-02-09T19:52:23.657Z,87.22
2019-02-09T19:54:54.715Z,87.15
2019-02-09T19:57:25.838Z,87.21
2019-02-09T19:59:58.723Z,87.09
2019-02-09T20:02:29.898Z,87.13
2019-02-09T20:05:00.812Z,87.27
2019-02-09T20:07:31.860Z,87.25
2019-02-09T20:10:03.022Z,87.46
2019-02-09T20:12:34.034Z,87.54
2019-02-09T20:15:05.703Z,87.75
2019-02-09T20:17:38.845Z,88.05
2019-02-09T20:20:10.637Z,88.38
2019-02-09T20:22:43.187Z,88.57
2019-02-09T20:25:16.357Z,88.71
2019-02-09T20:27:48.009Z,88.68
2019-02-09T20:30:23.681Z,88.69
2019-02-09T20:32:56.812Z,88.55
2019-02-09T20:35:29.927Z,88.85
2019-02-09T20:38:01.054Z,89.02
2019-02-09T20:40:42.842Z,89.24
2019-02-09T20:43:16.353Z,89.48
2019-02-09T20:45:49.181Z,89.43
2019-02-09T20:48:21.991Z,89.58
2019-02-09T20:50:53.684Z,89.71
2019-02-09T20:53:24.780Z,89.77
2019-02-09T20:55:55.464Z,89.72
2019-02-09T20:58:26.043Z,89.82
2019-02-09T21:00:57.126Z,89.85
2019-02-09T21:03:28.216Z,89.90
2019-02-09T21:06:00.147Z,89.91
2019-02-09T21:08:33.083Z,89.10
2019-02-09T21:11:04.124Z,89.10
2019-02-09T21:13:37.044Z,89.01
2019-02-09T21:16:08.215Z,89.23
2019-02-09T21:18:39.282Z,89.38
2019-02-09T21:21:10.102Z,89.29
2019-02-09T21:23:42.236Z,89.31
2019-02-09T21:26:15.175Z,89.59
2019-02-09T21:28:48.084Z,89.59
2019-02-09T21:31:20.203Z,89.83
2019-02-09T21:33:51.237Z,90.07
2019-02-09T21:36:24.350Z,90.29
2019-02-09T21:38:55.137Z,90.57
2019-02-09T21:41:26.492Z,90.61
2019-02-09T21:43:57.224Z,90.27
2019-02-09T21:46:28.634Z,90.25
2019-02-09T21:48:59.633Z,90.23
2019-02-09T21:51:30.280Z,89.91
2019-02-09T21:54:01.614Z,89.79
2019-02-09T21:56:32.238Z,90.36
2019-02-09T21:59:02.970Z,90.36
2019-02-09T22:01:33.390Z,90.04
2019-02-09T22:04:07.337Z,89.45
2019-02-09T22:06:38.715Z,89.45
2019-02-09T22:09:10.303Z,89.32
2019-02-09T22:11:42.470Z,89.32
2019-02-09T22:14:14.542Z,89.21
2019-02-09T22:16:45.478Z,89.58
2019-02-09T22:19:16.354Z,89.84
2019-02-09T22:21:47.668Z,89.84
2019-02-09T22:24:20.012Z,90.25
2019-02-09T22:26:52.423Z,90.25
2019-02-09T22:29:25.425Z,90.39
2019-02-09T22:31:56.554Z,90.48
2019-02-09T22:34:27.502Z,90.49
2019-02-09T22:36:58.505Z,90.66
2019-02-09T22:39:31.100Z,90.93
2019-02-09T22:42:03.813Z,91.21
2019-02-09T22:44:34.304Z,91.21
2019-02-09T22:47:05.120Z,91.77
2019-02-09T22:49:35.659Z,91.77
2019-02-09T22:52:06.596Z,91.76
2019-02-09T22:54:37.571Z,91.92
2019-02-09T22:57:08.498Z,91.94
2019-02-09T22:59:39.245Z,91.94
2019-02-09T23:02:09.809Z,91.98
2019-02-09T23:05:00.935Z,91.94
2019-02-09T23:07:35.484Z,92.16
2019-02-09T23:10:12.162Z,92.59
2019-02-09T23:12:48.382Z,92.73
2019-02-09T23:15:14.699Z,93.01
2019-02-09T23:17:45.581Z,92.96
2019-02-09T23:20:19.184Z,93.31
2019-02-09T23:22:50.599Z,93.31
2019-02-09T23:25:21.656Z,94.13
2019-02-09T23:27:52.685Z,94.13
2019-02-09T23:30:23.829Z,94.70
2019-02-09T23:32:54.815Z,94.74
2019-02-09T23:35:25.790Z,94.74
2019-02-09T23:37:56.736Z,95.10
2019-02-09T23:40:27.913Z,95.42
2019-02-09T23:42:58.780Z,95.92
2019-02-09T23:45:29.878Z,96.36
2019-02-09T23:48:00.946Z,96.62
2019-02-09T23:50:33.910Z,96.68
2019-02-09T23:53:05.769Z,96.77
2019-02-09T23:55:40.502Z,97.01
2019-02-09T23:58:12.872Z,97.53
